createdAt,value
2023-04-03T00:00:11.030Z,72.54
2023-04-03T00:03:00.027Z,72.32
2023-04-03T00:05:28.680Z,72.57
2023-04-03T00:07:58.110Z,72.61
2023-04-03T00:10:28.535Z,72.47
2023-04-03T00:12:59.725Z,72.55
2023-04-03T00:15:29.736Z,72.35
2023-04-03T00:18:02.760Z,72.24
2023-04-03T00:20:33.970Z,72.26
2023-04-03T00:23:03.698Z,72.35
2023-04-03T00:25:34.083Z,72.17
2023-04-03T00:28:03.115Z,72.36
2023-04-03T00:30:32.542Z,72.41
2023-04-03T00:33:02.265Z,72.22
2023-04-03T00:35:31.912Z,72.32
2023-04-03T00:38:02.379Z,72.20
2023-04-03T00:40:34.975Z,71.93
2023-04-03T00:43:11.985Z,72.30
2023-04-03T00:45:42.588Z,72.15
2023-04-03T00:48:15.188Z,72.32
2023-04-03T00:50:44.844Z,72.04
2023-04-03T00:53:18.137Z,72.09
2023-04-03T00:55:50.492Z,71.87
2023-04-03T00:58:22.058Z,72.07
2023-04-03T01:00:58.761Z,72.10
2023-04-03T01:03:29.097Z,72.12
2023-04-03T01:05:59.261Z,72.13
2023-04-03T01:08:28.069Z,72.10
2023-04-03T01:10:57.218Z,72.19
2023-04-03T01:13:29.593Z,72.17
2023-04-03T01:15:59.078Z,72.20
2023-04-03T01:18:28.675Z,72.18
2023-04-03T01:20:57.925Z,72.14
2023-04-03T01:23:32.768Z,72.25
2023-04-03T01:26:01.496Z,72.15
2023-04-03T01:28:32.480Z,72.26
2023-04-03T01:31:21.005Z,72.01
2023-04-03T01:33:51.145Z,72.35
2023-04-03T01:36:22.928Z,72.16
2023-04-03T01:38:52.205Z,72.08
2023-04-03T01:41:22.623Z,72.17
2023-04-03T01:43:53.247Z,72.19
2023-04-03T01:46:22.884Z,72.06
2023-04-03T01:48:52.791Z,71.85
2023-04-03T01:51:21.511Z,72.11
2023-04-03T01:53:50.473Z,72.00
2023-04-03T01:56:21.569Z,72.18
2023-04-03T01:58:51.522Z,72.13
2023-04-03T02:01:22.608Z,71.88
2023-04-03T02:03:53.064Z,72.05
2023-04-03T02:06:21.916Z,72.13
2023-04-03T02:08:51.806Z,72.07
2023-04-03T02:11:23.473Z,72.22
2023-04-03T02:13:55.603Z,72.24
2023-04-03T02:16:25.533Z,71.99
2023-04-03T02:18:55.168Z,72.02
2023-04-03T02:21:26.584Z,72.28
2023-04-03T02:23:59.577Z,72.00
2023-04-03T02:26:28.359Z,72.06
2023-04-03T02:28:58.807Z,72.07
2023-04-03T02:31:28.663Z,72.26
2023-04-03T02:34:00.556Z,72.16
2023-04-03T02:36:32.916Z,72.23
2023-04-03T02:39:05.338Z,71.86
2023-04-03T02:41:36.837Z,72.09
2023-04-03T02:44:10.433Z,72.18
2023-04-03T02:46:40.523Z,72.37
2023-04-03T02:49:11.755Z,72.00
2023-04-03T02:51:40.903Z,72.06
2023-04-03T02:54:10.200Z,72.10
2023-04-03T02:56:41.671Z,72.07
2023-04-03T02:59:12.294Z,72.14
2023-04-03T03:01:41.920Z,72.10
2023-04-03T03:04:10.781Z,72.20
2023-04-03T03:06:40.430Z,72.29
2023-04-03T03:09:09.303Z,72.21
2023-04-03T03:11:39.551Z,72.21
2023-04-03T03:14:11.891Z,72.16
2023-04-03T03:16:41.107Z,72.07
2023-04-03T03:19:09.802Z,72.05
2023-04-03T03:21:38.968Z,72.16
2023-04-03T03:24:09.727Z,72.36
2023-04-03T03:26:38.428Z,72.12
2023-04-03T03:29:07.118Z,72.29
2023-04-03T03:31:37.228Z,72.43
2023-04-03T03:34:06.807Z,72.26
2023-04-03T03:36:36.095Z,72.20
2023-04-03T03:39:05.922Z,72.10
2023-04-03T03:41:34.940Z,72.30
2023-04-03T03:44:05.321Z,72.23
2023-04-03T03:46:34.518Z,72.26
2023-04-03T03:49:05.718Z,72.31
2023-04-03T03:51:34.788Z,72.29
2023-04-03T03:54:05.217Z,72.48
2023-04-03T03:56:34.528Z,72.36
2023-04-03T03:59:03.299Z,72.38
2023-04-03T04:01:33.837Z,72.24
2023-04-03T04:04:03.083Z,72.56
2023-04-03T04:06:34.975Z,72.47
2023-04-03T04:09:07.330Z,72.27
2023-04-03T04:11:42.090Z,72.33
2023-04-03T04:14:14.186Z,72.36
2023-04-03T04:16:44.696Z,72.18
2023-04-03T04:19:18.687Z,72.43
2023-04-03T04:21:48.737Z,72.46
2023-04-03T04:24:20.093Z,72.32
2023-04-03T04:26:51.557Z,72.45
2023-04-03T04:29:21.282Z,72.55
2023-04-03T04:31:54.126Z,72.51
2023-04-03T04:34:24.543Z,72.45
2023-04-03T04:36:59.159Z,72.44
2023-04-03T04:39:31.036Z,72.42
2023-04-03T04:42:01.527Z,72.47
2023-04-03T04:44:31.726Z,72.49
2023-04-03T04:47:03.353Z,72.64
2023-04-03T04:49:32.833Z,72.51
2023-04-03T04:52:03.312Z,72.36
2023-04-03T04:54:34.098Z,72.42
2023-04-03T04:57:04.274Z,72.42
2023-04-03T04:59:36.607Z,72.44
2023-04-03T05:02:06.153Z,72.38
2023-04-03T05:04:35.564Z,72.59
2023-04-03T05:07:11.672Z,72.57
2023-04-03T05:09:43.795Z,72.58
2023-04-03T05:12:15.169Z,72.55
2023-04-03T05:14:51.304Z,72.66
2023-04-03T05:17:21.704Z,72.66
2023-04-03T05:19:54.663Z,72.51
2023-04-03T05:22:24.880Z,72.49
2023-04-03T05:24:54.810Z,72.83
2023-04-03T05:27:29.539Z,72.81
2023-04-03T05:30:01.143Z,72.45
2023-04-03T05:32:30.626Z,72.67
2023-04-03T05:35:13.169Z,72.66
2023-04-03T05:37:43.923Z,72.56
2023-04-03T05:40:16.377Z,72.48
2023-04-03T05:42:49.174Z,72.79
2023-04-03T05:45:18.846Z,72.35
2023-04-03T05:47:48.757Z,72.20
2023-04-03T05:50:19.841Z,72.52
2023-04-03T05:52:52.777Z,72.26
2023-04-03T05:55:23.356Z,72.38
2023-04-03T05:57:53.572Z,72.34
2023-04-03T06:00:24.636Z,72.40
2023-04-03T06:02:58.977Z,72.65
2023-04-03T06:05:28.318Z,72.12
2023-04-03T06:07:58.552Z,72.09
2023-04-03T06:10:31.270Z,72.13
2023-04-03T06:13:00.433Z,72.21
2023-04-03T06:15:29.710Z,72.12
2023-04-03T06:18:00.429Z,72.15
2023-04-03T06:20:31.041Z,71.87
2023-04-03T06:23:01.552Z,72.10
2023-04-03T06:25:32.069Z,72.06
2023-04-03T06:28:02.677Z,72.05
2023-04-03T06:30:31.618Z,72.07
2023-04-03T06:33:01.023Z,71.95
2023-04-03T06:35:31.725Z,71.98
2023-04-03T06:38:00.731Z,71.79
2023-04-03T06:40:29.937Z,71.86
2023-04-03T06:42:59.338Z,72.04
2023-04-03T06:45:29.252Z,71.83
2023-04-03T06:47:58.370Z,71.74
2023-04-03T06:50:28.724Z,71.97
2023-04-03T06:52:58.828Z,71.69
2023-04-03T06:55:28.211Z,71.61
2023-04-03T06:57:57.023Z,68.94
2023-04-03T07:00:26.472Z,66.79
2023-04-03T07:02:58.102Z,64.91
2023-04-03T07:05:27.993Z,63.47
2023-04-03T07:07:56.909Z,62.40
2023-04-03T07:10:25.503Z,61.65
2023-04-03T07:12:54.733Z,61.22
2023-04-03T07:15:23.661Z,60.32
2023-04-03T07:17:52.468Z,59.22
2023-04-03T07:20:21.324Z,58.80
2023-04-03T07:22:50.104Z,57.50
2023-04-03T07:25:18.974Z,56.51
2023-04-03T07:27:48.936Z,56.82
2023-04-03T07:30:18.398Z,56.45
2023-04-03T07:32:47.562Z,56.02
2023-04-03T07:35:17.760Z,54.77
2023-04-03T07:37:46.384Z,54.87
2023-04-03T07:40:15.007Z,54.97
2023-04-03T07:42:43.645Z,54.78
2023-04-03T07:45:12.415Z,54.52
2023-04-03T07:47:41.585Z,53.57
2023-04-03T07:50:10.153Z,52.85
2023-04-03T07:52:38.739Z,52.57
2023-04-03T07:55:08.122Z,52.59
2023-04-03T07:57:40.316Z,52.30
2023-04-03T08:00:10.298Z,52.59
2023-04-03T08:02:41.476Z,52.14
2023-04-03T08:05:10.537Z,52.49
2023-04-03T08:07:40.234Z,52.30
2023-04-03T08:10:09.170Z,51.84
2023-04-03T08:12:38.564Z,51.15
2023-04-03T08:15:09.622Z,51.48
2023-04-03T08:17:38.383Z,51.20
2023-04-03T08:20:08.274Z,50.44
2023-04-03T08:22:37.588Z,51.85
2023-04-03T08:25:07.755Z,51.30
2023-04-03T08:27:37.568Z,51.62
2023-04-03T08:30:07.944Z,51.86
2023-04-03T08:32:39.118Z,53.84
2023-04-03T08:35:09.073Z,55.12
2023-04-03T08:37:41.831Z,56.18
2023-04-03T08:40:15.958Z,54.47
2023-04-03T08:42:50.644Z,55.14
2023-04-03T08:45:23.785Z,55.31
2023-04-03T08:48:07.124Z,56.19
2023-04-03T08:50:42.093Z,55.43
2023-04-03T08:53:17.656Z,57.04
2023-04-03T08:55:46.549Z,57.38
2023-04-03T08:58:41.680Z,58.37
2023-04-03T09:01:19.247Z,58.78
2023-04-03T09:03:47.966Z,59.36
2023-04-03T09:06:16.589Z,59.22
2023-04-03T09:08:50.099Z,58.24
2023-04-03T09:11:28.081Z,56.64
2023-04-03T09:14:21.731Z,55.68
2023-04-03T09:17:12.199Z,55.10
2023-04-03T09:20:01.088Z,53.55
2023-04-03T09:23:32.319Z,53.73
2023-04-03T09:26:14.456Z,55.71
2023-04-03T09:28:51.326Z,56.28
2023-04-03T09:31:45.309Z,56.68
2023-04-03T09:34:23.307Z,56.87
2023-04-03T09:36:55.725Z,56.57
2023-04-03T09:39:26.126Z,57.99
2023-04-03T09:42:04.216Z,58.17
2023-04-03T09:44:39.168Z,58.11
2023-04-03T09:47:26.997Z,57.71
2023-04-03T09:50:25.301Z,56.35
2023-04-03T09:52:55.067Z,58.13
2023-04-03T09:55:30.965Z,58.42
2023-04-03T09:58:02.001Z,58.66
2023-04-03T10:00:31.689Z,58.78
2023-04-03T10:03:01.923Z,59.33
2023-04-03T10:05:37.726Z,59.09
2023-04-03T10:08:12.229Z,57.39
2023-04-03T10:10:48.474Z,57.02
2023-04-03T10:13:22.813Z,56.10
2023-04-03T10:16:00.120Z,56.06
2023-04-03T10:18:32.431Z,55.51
2023-04-03T10:21:14.508Z,54.40
2023-04-03T10:24:13.406Z,53.73
2023-04-03T10:26:50.815Z,53.76
2023-04-03T10:29:34.243Z,53.20
2023-04-03T10:32:09.792Z,52.96
2023-04-03T10:34:54.683Z,52.74
2023-04-03T10:37:38.397Z,52.88
2023-04-03T10:40:16.897Z,52.80
2023-04-03T10:42:59.034Z,52.86
2023-04-03T10:45:37.336Z,53.27
2023-04-03T10:48:07.409Z,53.36
2023-04-03T10:50:48.852Z,54.02
2023-04-03T10:53:41.264Z,53.43
2023-04-03T10:56:11.554Z,50.93
2023-04-03T10:58:48.574Z,50.18
2023-04-03T11:01:20.567Z,51.50
2023-04-03T11:03:58.920Z,51.40
2023-04-03T11:06:37.427Z,51.33
2023-04-03T11:09:24.546Z,51.25
2023-04-03T11:12:08.207Z,51.04
2023-04-03T11:14:40.078Z,49.89
2023-04-03T11:17:38.518Z,50.63
2023-04-03T11:20:08.492Z,50.83
2023-04-03T11:23:03.083Z,49.93
2023-04-03T11:25:38.513Z,50.44
2023-04-03T11:28:12.492Z,50.19
2023-04-03T11:31:04.271Z,50.06
2023-04-03T11:33:43.918Z,49.58
2023-04-03T11:36:25.571Z,49.69
2023-04-03T11:39:00.548Z,49.14
2023-04-03T11:41:31.135Z,48.77
2023-04-03T11:44:03.778Z,48.80
2023-04-03T11:46:52.420Z,48.17
2023-04-03T11:49:41.417Z,48.32
2023-04-03T11:52:12.468Z,48.06
2023-04-03T11:54:44.921Z,48.17
2023-04-03T11:57:33.266Z,48.50
2023-04-03T12:00:25.144Z,47.82
2023-04-03T12:02:56.234Z,47.20
2023-04-03T12:05:30.083Z,47.45
2023-04-03T12:08:18.763Z,47.29
2023-04-03T12:11:07.832Z,47.35
2023-04-03T12:13:37.941Z,47.06
2023-04-03T12:16:11.087Z,46.41
2023-04-03T12:18:46.370Z,47.11
2023-04-03T12:21:24.620Z,47.31
2023-04-03T12:23:59.914Z,47.03
2023-04-03T12:26:42.055Z,47.13
2023-04-03T12:29:17.377Z,46.44
2023-04-03T12:32:05.125Z,45.83
2023-04-03T12:34:57.966Z,46.35
2023-04-03T12:37:45.623Z,46.72
2023-04-03T12:40:39.455Z,46.54
2023-04-03T12:43:29.118Z,45.84
2023-04-03T12:46:06.294Z,45.81
2023-04-03T12:48:48.806Z,45.87
2023-04-03T12:51:37.207Z,45.54
2023-04-03T12:54:16.076Z,45.40
2023-04-03T12:56:47.485Z,45.25
2023-04-03T12:59:23.506Z,45.24
2023-04-03T13:01:59.605Z,45.76
2023-04-03T13:04:29.525Z,45.82
2023-04-03T13:06:58.880Z,45.20
2023-04-03T13:09:30.789Z,44.85
2023-04-03T13:12:06.640Z,45.30
2023-04-03T13:14:40.107Z,45.00
2023-04-03T13:17:12.001Z,44.74
2023-04-03T13:19:43.456Z,44.23
2023-04-03T13:23:02.888Z,44.54
2023-04-03T13:25:36.748Z,44.88
2023-04-03T13:28:13.804Z,44.99
2023-04-03T13:30:55.769Z,44.66
2023-04-03T13:33:27.239Z,44.15
2023-04-03T13:36:07.528Z,44.04
2023-04-03T13:38:38.005Z,44.22
2023-04-03T13:44:23.105Z,44.25
2023-04-03T13:46:53.403Z,44.20
2023-04-03T13:49:29.591Z,43.98
2023-04-03T13:52:07.321Z,44.47
2023-04-03T13:54:40.338Z,44.61
2023-04-03T13:57:14.994Z,44.59
2023-04-03T13:59:46.376Z,44.12
2023-04-03T14:02:34.991Z,43.89
2023-04-03T14:05:07.050Z,43.90
2023-04-03T14:07:36.782Z,44.31
2023-04-03T14:10:08.994Z,44.20
2023-04-03T14:12:40.541Z,43.62
2023-04-03T14:15:17.421Z,44.10
2023-04-03T14:17:46.364Z,44.25
2023-04-03T14:20:21.050Z,43.91
2023-04-03T14:22:52.255Z,43.95
2023-04-03T14:25:21.920Z,43.82
2023-04-03T14:27:52.212Z,44.19
2023-04-03T14:30:26.169Z,44.29
2023-04-03T14:32:55.906Z,43.89
2023-04-03T14:35:25.883Z,43.79
2023-04-03T14:37:55.443Z,43.80
2023-04-03T14:40:26.629Z,43.68
2023-04-03T14:42:56.687Z,43.98
2023-04-03T14:45:25.885Z,44.09
2023-04-03T14:47:56.579Z,44.08
2023-04-03T14:50:28.406Z,43.86
2023-04-03T14:52:59.209Z,43.55
2023-04-03T14:55:29.899Z,43.44
2023-04-03T14:57:58.860Z,43.67
2023-04-03T15:00:29.071Z,43.99
2023-04-03T15:03:17.343Z,43.86
2023-04-03T15:05:48.280Z,43.38
2023-04-03T15:08:22.778Z,43.70
2023-04-03T15:10:54.054Z,43.49
2023-04-03T15:13:24.310Z,43.65
2023-04-03T15:15:54.439Z,43.98
2023-04-03T15:18:30.385Z,44.29
2023-04-03T15:21:00.312Z,44.12
2023-04-03T15:23:31.413Z,43.81
2023-04-03T15:26:00.635Z,43.97
2023-04-03T15:28:39.586Z,43.86
2023-04-03T15:31:09.043Z,43.98
2023-04-03T15:33:38.414Z,44.22
2023-04-03T15:36:17.201Z,44.00
2023-04-03T15:38:56.331Z,44.23
2023-04-03T15:41:27.229Z,43.76
2023-04-03T15:43:57.900Z,43.79
2023-04-03T15:46:26.619Z,44.06
2023-04-03T15:48:59.527Z,44.35
2023-04-03T15:51:31.637Z,44.37
2023-04-03T15:54:00.497Z,44.20
2023-04-03T15:56:29.886Z,44.27
2023-04-03T15:59:03.403Z,44.26
2023-04-03T16:01:37.385Z,44.29
2023-04-03T16:04:08.970Z,44.09
2023-04-03T16:06:39.978Z,43.88
2023-04-03T16:09:09.478Z,44.04
2023-04-03T16:11:40.643Z,44.15
2023-04-03T16:14:09.915Z,44.16
2023-04-03T16:16:40.188Z,44.21
2023-04-03T16:19:11.564Z,44.35
2023-04-03T16:21:42.388Z,44.07
2023-04-03T16:24:37.258Z,44.29
2023-04-03T16:27:07.780Z,44.36
2023-04-03T16:29:37.717Z,44.42
2023-04-03T16:32:06.932Z,44.26
2023-04-03T16:34:36.120Z,44.43
2023-04-03T16:37:06.637Z,44.59
2023-04-03T16:39:36.779Z,44.40
2023-04-03T16:42:08.422Z,44.57
2023-04-03T16:44:39.601Z,44.42
2023-04-03T16:47:11.379Z,44.66
2023-04-03T16:49:41.516Z,44.47
2023-04-03T16:52:12.653Z,44.69
2023-04-03T16:54:42.901Z,44.65
2023-04-03T16:57:12.660Z,44.64
2023-04-03T16:59:43.269Z,44.72
2023-04-03T17:02:13.270Z,44.72
2023-04-03T17:04:43.358Z,44.54
2023-04-03T17:07:15.571Z,44.78
2023-04-03T17:09:45.484Z,44.77
2023-04-03T17:12:15.900Z,44.84
2023-04-03T17:14:45.176Z,44.74
2023-04-03T17:17:15.501Z,44.83
2023-04-03T17:19:45.612Z,44.74
2023-04-03T17:22:17.384Z,44.70
2023-04-03T17:24:48.442Z,44.62
2023-04-03T17:27:17.892Z,44.62
2023-04-03T17:29:51.926Z,44.56
2023-04-03T17:32:23.823Z,44.68
2023-04-03T17:34:54.887Z,44.96
2023-04-03T17:37:26.268Z,44.75
2023-04-03T17:39:58.818Z,44.91
2023-04-03T17:42:32.005Z,44.93
2023-04-03T17:45:05.580Z,44.93
2023-04-03T17:47:35.898Z,44.92
2023-04-03T17:50:08.270Z,45.02
2023-04-03T17:52:39.852Z,45.16
2023-04-03T17:55:10.457Z,45.13
2023-04-03T17:57:42.261Z,45.10
2023-04-03T18:00:13.970Z,45.17
2023-04-03T18:02:45.112Z,45.33
2023-04-03T18:05:17.449Z,45.33
2023-04-03T18:07:51.091Z,45.58
2023-04-03T18:10:24.363Z,45.50
2023-04-03T18:12:57.771Z,45.53
2023-04-03T18:15:30.327Z,45.62
2023-04-03T18:18:04.437Z,45.71
2023-04-03T18:20:34.846Z,45.62
2023-04-03T18:23:04.674Z,45.71
2023-04-03T18:25:38.694Z,45.56
2023-04-03T18:28:10.336Z,45.83
2023-04-03T18:30:43.883Z,45.80
2023-04-03T18:33:14.155Z,45.69
2023-04-03T18:35:51.865Z,45.61
2023-04-03T18:38:22.650Z,45.84
2023-04-03T18:40:55.810Z,46.13
2023-04-03T18:43:28.518Z,46.07
2023-04-03T18:45:59.187Z,45.98
2023-04-03T18:48:32.019Z,45.76
2023-04-03T18:51:06.694Z,45.93
2023-04-03T18:53:37.781Z,46.09
2023-04-03T18:56:09.861Z,45.89
2023-04-03T18:58:43.449Z,46.01
2023-04-03T19:01:13.768Z,45.91
2023-04-03T19:03:49.541Z,45.93
2023-04-03T19:06:23.424Z,45.85
2023-04-03T19:09:03.090Z,45.61
2023-04-03T19:11:40.205Z,45.63
2023-04-03T19:14:16.749Z,45.61
2023-04-03T19:16:50.088Z,46.03
2023-04-03T19:19:25.110Z,45.70
2023-04-03T19:21:57.262Z,45.99
2023-04-03T19:24:31.807Z,46.16
2023-04-03T19:27:02.434Z,46.14
2023-04-03T19:29:34.170Z,46.35
2023-04-03T19:32:05.658Z,46.10
2023-04-03T19:34:38.178Z,45.95
2023-04-03T19:37:11.443Z,46.49
2023-04-03T19:39:43.392Z,46.39
2023-04-03T19:42:20.120Z,46.37
2023-04-03T19:44:52.911Z,46.36
2023-04-03T19:47:24.762Z,45.93
2023-04-03T19:49:55.835Z,46.40
2023-04-03T19:52:27.862Z,46.21
2023-04-03T19:54:58.504Z,46.19
2023-04-03T19:57:33.751Z,46.32
2023-04-03T20:00:08.543Z,46.49
2023-04-03T20:02:42.663Z,46.24
2023-04-03T20:05:14.225Z,46.31
2023-04-03T20:07:49.201Z,46.25
2023-04-03T20:10:21.085Z,46.39
2023-04-03T20:12:51.788Z,46.33
2023-04-03T20:15:22.231Z,46.46
2023-04-03T20:17:53.995Z,46.30
2023-04-03T20:20:26.129Z,46.31
2023-04-03T20:23:35.746Z,46.22
2023-04-03T20:26:15.281Z,46.06
2023-04-03T20:28:45.549Z,46.49
2023-04-03T20:31:17.068Z,46.50
2023-04-03T20:33:47.094Z,46.58
2023-04-03T20:36:18.686Z,46.70
2023-04-03T20:38:49.714Z,46.40
2023-04-03T20:41:20.941Z,46.52
2023-04-03T20:43:50.666Z,46.82
2023-04-03T20:46:21.276Z,46.95
2023-04-03T20:48:54.411Z,47.15
2023-04-03T20:51:24.765Z,47.07
2023-04-03T20:53:55.828Z,47.05
2023-04-03T20:56:25.912Z,47.09
2023-04-03T20:58:56.990Z,47.08
2023-04-03T21:01:27.793Z,47.17
2023-04-03T21:04:01.485Z,47.38
2023-04-03T21:06:50.628Z,47.24
2023-04-03T21:09:38.106Z,47.46
2023-04-03T21:12:25.709Z,47.45
2023-04-03T21:15:14.184Z,47.33
2023-04-03T21:17:57.877Z,47.48
2023-04-03T21:20:27.634Z,47.28
2023-04-03T21:23:04.701Z,47.56
2023-04-03T21:25:33.558Z,47.38
2023-04-03T21:28:03.327Z,47.38
2023-04-03T21:30:34.809Z,47.57
2023-04-03T21:33:05.437Z,47.55
2023-04-03T21:35:35.783Z,47.48
2023-04-03T21:38:05.296Z,47.61
2023-04-03T21:40:34.158Z,47.72
2023-04-03T21:43:05.550Z,47.71
2023-04-03T21:45:39.652Z,47.75
2023-04-03T21:48:10.604Z,47.82
2023-04-03T21:50:40.460Z,47.82
2023-04-03T21:53:09.301Z,47.70
2023-04-03T21:55:40.143Z,47.91
2023-04-03T21:58:10.602Z,47.82
2023-04-03T22:00:39.714Z,48.15
2023-04-03T22:03:10.717Z,48.20
2023-04-03T22:05:40.254Z,48.22
2023-04-03T22:08:08.837Z,48.34
2023-04-03T22:10:41.590Z,48.15
2023-04-03T22:13:10.843Z,48.36
2023-04-03T22:15:47.829Z,48.36
2023-04-03T22:18:17.117Z,48.27
2023-04-03T22:20:47.428Z,48.56
2023-04-03T22:23:17.046Z,48.50
2023-04-03T22:26:00.453Z,48.60
2023-04-03T22:28:30.140Z,48.55
2023-04-03T22:31:16.819Z,48.73
2023-04-03T22:33:46.467Z,48.72
2023-04-03T22:36:15.980Z,48.87
2023-04-03T22:38:49.138Z,48.71
2023-04-03T22:41:17.826Z,48.88
2023-04-03T22:43:49.374Z,48.91
2023-04-03T22:46:18.451Z,48.85
2023-04-03T22:48:48.930Z,48.94
2023-04-03T22:51:17.533Z,48.92
2023-04-03T22:53:47.775Z,49.05
2023-04-03T22:56:16.489Z,49.11
2023-04-03T22:58:48.498Z,49.01
2023-04-03T23:01:17.707Z,49.07
2023-04-03T23:03:48.924Z,49.19
2023-04-03T23:06:17.950Z,49.07
2023-04-03T23:08:46.719Z,49.34
2023-04-03T23:11:15.340Z,49.25
2023-04-03T23:13:44.355Z,49.34
2023-04-03T23:16:13.666Z,49.39
2023-04-03T23:18:43.982Z,49.33
2023-04-03T23:21:14.527Z,49.38
2023-04-03T23:23:49.628Z,49.20
2023-04-03T23:26:18.529Z,49.47
2023-04-03T23:28:47.276Z,49.46
2023-04-03T23:31:17.080Z,49.48
2023-04-03T23:33:45.912Z,49.59
2023-04-03T23:36:18.785Z,49.58
2023-04-03T23:38:47.425Z,49.51
2023-04-03T23:41:15.884Z,49.57
2023-04-03T23:43:46.879Z,49.58
2023-04-03T23:46:15.683Z,49.60
2023-04-03T23:48:44.402Z,49.61
2023-04-03T23:51:14.321Z,49.65
2023-04-03T23:53:45.015Z,49.76
2023-04-03T23:56:13.728Z,49.70
2023-04-03T23:58:44.196Z,49.97
